sensor_id;sensor_type;location;lat;lon;timestamp;P1;durP1;ratioP1;P2;durP2;ratioP2
52620;SDS011;38515;53.160;6.990;2023-06-24T00:00:11;87.28;;;82.90;;
52620;SDS011;38515;53.160;6.990;2023-06-24T00:02:37;77.82;;;73.72;;
52620;SDS011;38515;53.160;6.990;2023-06-24T00:05:04;91.65;;;87.20;;
52620;SDS011;38515;53.160;6.990;2023-06-24T00:07:31;91.85;;;87.50;;
52620;SDS011;38515;53.160;6.990;2023-06-24T00:10:01;87.20;;;83.15;;
52620;SDS011;38515;53.160;6.990;2023-06-24T00:12:28;70.78;;;67.30;;
52620;SDS011;38515;53.160;6.990;2023-06-24T00:14:54;91.55;;;86.75;;
52620;SDS011;38515;53.160;6.990;2023-06-24T00:17:20;92.10;;;87.85;;
52620;SDS011;38515;53.160;6.990;2023-06-24T00:19:46;96.07;;;91.60;;
52620;SDS011;38515;53.160;6.990;2023-06-24T00:22:12;102.82;;;97.95;;
52620;SDS011;38515;53.160;6.990;2023-06-24T00:24:38;98.32;;;93.78;;
52620;SDS011;38515;53.160;6.990;2023-06-24T00:27:05;85.22;;;81.22;;
52620;SDS011;38515;53.160;6.990;2023-06-24T00:29:31;95.53;;;90.88;;
52620;SDS011;38515;53.160;6.990;2023-06-24T00:31:57;87.60;;;83.07;;
52620;SDS011;38515;53.160;6.990;2023-06-24T00:34:22;90.57;;;85.97;;
52620;SDS011;38515;53.160;6.990;2023-06-24T00:36:48;94.90;;;90.18;;
52620;SDS011;38515;53.160;6.990;2023-06-24T00:39:15;87.95;;;83.40;;
52620;SDS011;38515;53.160;6.990;2023-06-24T00:41:41;125.28;;;119.63;;
52620;SDS011;38515;53.160;6.990;2023-06-24T00:44:08;88.55;;;84.05;;
52620;SDS011;38515;53.160;6.990;2023-06-24T00:46:34;98.60;;;94.13;;
52620;SDS011;38515;53.160;6.990;2023-06-24T00:49:00;94.22;;;89.78;;
52620;SDS011;38515;53.160;6.990;2023-06-24T00:51:27;95.70;;;91.20;;
52620;SDS011;38515;53.160;6.990;2023-06-24T00:53:58;110.03;;;104.68;;
52620;SDS011;38515;53.160;6.990;2023-06-24T00:56:28;126.18;;;120.22;;
52620;SDS011;38515;53.160;6.990;2023-06-24T00:58:59;117.95;;;112.68;;
52620;SDS011;38515;53.160;6.990;2023-06-24T01:01:34;115.10;;;109.75;;
52620;SDS011;38515;53.160;6.990;2023-06-24T01:04:01;118.72;;;113.07;;
52620;SDS011;38515;53.160;6.990;2023-06-24T01:06:28;148.95;;;142.10;;
52620;SDS011;38515;53.160;6.990;2023-06-24T01:08:56;107.07;;;101.88;;
52620;SDS011;38515;53.160;6.990;2023-06-24T01:11:25;165.75;;;158.18;;
52620;SDS011;38515;53.160;6.990;2023-06-24T01:13:52;155.15;;;148.23;;
52620;SDS011;38515;53.160;6.990;2023-06-24T01:16:28;198.95;;;190.25;;
52620;SDS011;38515;53.160;6.990;2023-06-24T01:34:29;97.68;;;92.75;;
52620;SDS011;38515;53.160;6.990;2023-06-24T01:36:46;105.03;;;99.90;;
52620;SDS011;38515;53.160;6.990;2023-06-24T01:39:16;139.25;;;133.02;;
52620;SDS011;38515;53.160;6.990;2023-06-24T01:41:51;113.95;;;108.80;;
52620;SDS011;38515;53.160;6.990;2023-06-24T01:44:23;179.18;;;171.25;;
52620;SDS011;38515;53.160;6.990;2023-06-24T01:46:50;145.18;;;138.85;;
52620;SDS011;38515;53.160;6.990;2023-06-24T01:49:23;173.15;;;165.35;;
52620;SDS011;38515;53.160;6.990;2023-06-24T01:51:53;149.85;;;143.02;;
52620;SDS011;38515;53.160;6.990;2023-06-24T01:54:24;126.28;;;120.55;;
52620;SDS011;38515;53.160;6.990;2023-06-24T01:56:53;205.02;;;195.43;;
52620;SDS011;38515;53.160;6.990;2023-06-24T01:59:22;131.40;;;125.40;;
52620;SDS011;38515;53.160;6.990;2023-06-24T02:01:50;101.75;;;96.60;;
52620;SDS011;38515;53.160;6.990;2023-06-24T02:04:17;108.05;;;103.05;;
52620;SDS011;38515;53.160;6.990;2023-06-24T02:06:44;136.48;;;130.15;;
52620;SDS011;38515;53.160;6.990;2023-06-24T02:09:11;173.88;;;166.05;;
52620;SDS011;38515;53.160;6.990;2023-06-24T02:11:38;133.70;;;127.60;;
52620;SDS011;38515;53.160;6.990;2023-06-24T02:14:05;163.15;;;156.15;;
52620;SDS011;38515;53.160;6.990;2023-06-24T02:16:33;173.02;;;165.00;;
52620;SDS011;38515;53.160;6.990;2023-06-24T02:19:01;264.80;;;252.18;;
52620;SDS011;38515;53.160;6.990;2023-06-24T02:21:29;221.50;;;211.18;;
52620;SDS011;38515;53.160;6.990;2023-06-24T02:23:56;196.75;;;187.15;;
52620;SDS011;38515;53.160;6.990;2023-06-24T02:26:23;173.13;;;165.65;;
52620;SDS011;38515;53.160;6.990;2023-06-24T02:28:51;218.68;;;209.07;;
52620;SDS011;38515;53.160;6.990;2023-06-24T02:31:18;223.38;;;212.77;;
52620;SDS011;38515;53.160;6.990;2023-06-24T02:33:45;207.32;;;197.90;;
52620;SDS011;38515;53.160;6.990;2023-06-24T02:36:11;218.38;;;208.32;;
52620;SDS011;38515;53.160;6.990;2023-06-24T02:38:37;200.60;;;191.80;;
52620;SDS011;38515;53.160;6.990;2023-06-24T02:41:03;219.32;;;209.32;;
52620;SDS011;38515;53.160;6.990;2023-06-24T02:43:30;252.32;;;239.65;;
52620;SDS011;38515;53.160;6.990;2023-06-24T02:45:57;199.98;;;191.25;;
52620;SDS011;38515;53.160;6.990;2023-06-24T02:48:25;154.13;;;146.65;;
52620;SDS011;38515;53.160;6.990;2023-06-24T02:50:53;194.63;;;185.85;;
52620;SDS011;38515;53.160;6.990;2023-06-24T02:53:20;173.00;;;165.18;;
52620;SDS011;38515;53.160;6.990;2023-06-24T02:55:46;207.98;;;198.38;;
52620;SDS011;38515;53.160;6.990;2023-06-24T02:58:12;222.32;;;211.93;;
52620;SDS011;38515;53.160;6.990;2023-06-24T03:00:39;245.00;;;232.98;;
52620;SDS011;38515;53.160;6.990;2023-06-24T03:03:05;204.73;;;194.65;;
52620;SDS011;38515;53.160;6.990;2023-06-24T03:05:32;127.57;;;120.53;;
52620;SDS011;38515;53.160;6.990;2023-06-24T03:07:58;130.98;;;123.95;;
52620;SDS011;38515;53.160;6.990;2023-06-24T03:10:25;127.95;;;120.75;;
52620;SDS011;38515;53.160;6.990;2023-06-24T03:12:53;154.60;;;146.20;;
52620;SDS011;38515;53.160;6.990;2023-06-24T03:15:19;162.70;;;154.18;;
52620;SDS011;38515;53.160;6.990;2023-06-24T03:17:45;144.95;;;137.15;;
52620;SDS011;38515;53.160;6.990;2023-06-24T03:20:12;140.00;;;132.77;;
52620;SDS011;38515;53.160;6.990;2023-06-24T03:22:37;138.75;;;130.95;;
52620;SDS011;38515;53.160;6.990;2023-06-24T03:25:06;117.55;;;111.43;;
52620;SDS011;38515;53.160;6.990;2023-06-24T03:27:32;131.30;;;124.10;;
52620;SDS011;38515;53.160;6.990;2023-06-24T03:29:59;114.70;;;108.40;;
52620;SDS011;38515;53.160;6.990;2023-06-24T03:32:25;118.50;;;111.43;;
52620;SDS011;38515;53.160;6.990;2023-06-24T03:34:50;128.68;;;121.47;;
52620;SDS011;38515;53.160;6.990;2023-06-24T03:37:16;120.30;;;113.75;;
52620;SDS011;38515;53.160;6.990;2023-06-24T03:39:42;76.05;;;70.88;;
52620;SDS011;38515;53.160;6.990;2023-06-24T03:42:08;90.82;;;85.38;;
52620;SDS011;38515;53.160;6.990;2023-06-24T03:44:34;85.63;;;79.88;;
52620;SDS011;38515;53.160;6.990;2023-06-24T03:47:00;98.65;;;92.68;;
52620;SDS011;38515;53.160;6.990;2023-06-24T03:49:26;107.57;;;101.38;;
52620;SDS011;38515;53.160;6.990;2023-06-24T03:51:52;121.30;;;114.18;;
52620;SDS011;38515;53.160;6.990;2023-06-24T03:54:18;128.98;;;121.90;;
52620;SDS011;38515;53.160;6.990;2023-06-24T03:56:43;106.68;;;100.65;;
52620;SDS011;38515;53.160;6.990;2023-06-24T03:59:09;133.27;;;125.97;;
52620;SDS011;38515;53.160;6.990;2023-06-24T04:01:36;138.27;;;130.68;;
52620;SDS011;38515;53.160;6.990;2023-06-24T04:04:02;112.38;;;105.93;;
52620;SDS011;38515;53.160;6.990;2023-06-24T04:06:28;109.85;;;103.45;;
52620;SDS011;38515;53.160;6.990;2023-06-24T04:08:54;132.88;;;125.75;;
52620;SDS011;38515;53.160;6.990;2023-06-24T04:11:20;132.23;;;125.55;;
52620;SDS011;38515;53.160;6.990;2023-06-24T04:13:46;148.52;;;140.80;;
52620;SDS011;38515;53.160;6.990;2023-06-24T04:16:14;155.20;;;147.07;;
52620;SDS011;38515;53.160;6.990;2023-06-24T04:18:40;166.07;;;157.30;;
52620;SDS011;38515;53.160;6.990;2023-06-24T04:21:07;179.35;;;170.65;;
52620;SDS011;38515;53.160;6.990;2023-06-24T04:23:33;239.30;;;228.20;;
52620;SDS011;38515;53.160;6.990;2023-06-24T04:25:59;275.98;;;262.65;;
52620;SDS011;38515;53.160;6.990;2023-06-24T04:28:25;310.42;;;294.85;;
52620;SDS011;38515;53.160;6.990;2023-06-24T04:30:51;220.00;;;209.35;;
52620;SDS011;38515;53.160;6.990;2023-06-24T04:33:17;319.30;;;303.05;;
52620;SDS011;38515;53.160;6.990;2023-06-24T04:35:43;202.93;;;193.43;;
52620;SDS011;38515;53.160;6.990;2023-06-24T04:38:09;142.10;;;135.05;;
52620;SDS011;38515;53.160;6.990;2023-06-24T04:40:36;150.30;;;143.27;;
52620;SDS011;38515;53.160;6.990;2023-06-24T04:43:02;259.65;;;247.52;;
52620;SDS011;38515;53.160;6.990;2023-06-24T04:45:28;263.20;;;250.68;;
52620;SDS011;38515;53.160;6.990;2023-06-24T04:47:54;186.07;;;177.43;;
52620;SDS011;38515;53.160;6.990;2023-06-24T04:50:19;158.10;;;150.48;;
52620;SDS011;38515;53.160;6.990;2023-06-24T04:52:51;117.60;;;111.55;;
52620;SDS011;38515;53.160;6.990;2023-06-24T04:55:18;141.10;;;133.98;;
52620;SDS011;38515;53.160;6.990;2023-06-24T04:57:44;150.23;;;143.07;;
52620;SDS011;38515;53.160;6.990;2023-06-24T05:00:10;236.02;;;225.50;;
52620;SDS011;38515;53.160;6.990;2023-06-24T05:02:37;183.60;;;175.30;;
52620;SDS011;38515;53.160;6.990;2023-06-24T05:05:02;148.98;;;142.18;;
52620;SDS011;38515;53.160;6.990;2023-06-24T05:07:28;174.85;;;166.88;;
52620;SDS011;38515;53.160;6.990;2023-06-24T05:09:55;153.70;;;146.63;;
52620;SDS011;38515;53.160;6.990;2023-06-24T05:12:20;144.70;;;137.55;;
52620;SDS011;38515;53.160;6.990;2023-06-24T05:14:50;165.48;;;157.82;;
52620;SDS011;38515;53.160;6.990;2023-06-24T05:17:19;152.88;;;146.02;;
52620;SDS011;38515;53.160;6.990;2023-06-24T05:19:45;68.25;;;64.43;;
52620;SDS011;38515;53.160;6.990;2023-06-24T05:22:11;75.65;;;71.43;;
52620;SDS011;38515;53.160;6.990;2023-06-24T05:24:37;90.82;;;86.10;;
52620;SDS011;38515;53.160;6.990;2023-06-24T05:27:04;76.78;;;72.82;;
52620;SDS011;38515;53.160;6.990;2023-06-24T05:29:31;158.05;;;150.55;;
52620;SDS011;38515;53.160;6.990;2023-06-24T05:31:58;74.72;;;70.75;;
52620;SDS011;38515;53.160;6.990;2023-06-24T05:34:25;104.03;;;98.50;;
52620;SDS011;38515;53.160;6.990;2023-06-24T05:36:51;116.15;;;110.68;;
52620;SDS011;38515;53.160;6.990;2023-06-24T05:39:16;166.00;;;158.68;;
52620;SDS011;38515;53.160;6.990;2023-06-24T05:41:42;136.55;;;130.15;;
52620;SDS011;38515;53.160;6.990;2023-06-24T05:44:08;207.77;;;198.80;;
52620;SDS011;38515;53.160;6.990;2023-06-24T05:46:37;89.43;;;85.25;;
52620;SDS011;38515;53.160;6.990;2023-06-24T05:49:03;81.93;;;77.85;;
52620;SDS011;38515;53.160;6.990;2023-06-24T05:51:29;81.00;;;76.75;;
52620;SDS011;38515;53.160;6.990;2023-06-24T05:53:55;61.22;;;57.88;;
52620;SDS011;38515;53.160;6.990;2023-06-24T05:56:21;242.30;;;232.02;;
52620;SDS011;38515;53.160;6.990;2023-06-24T05:58:49;155.88;;;149.02;;
52620;SDS011;38515;53.160;6.990;2023-06-24T06:01:15;252.45;;;241.52;;
52620;SDS011;38515;53.160;6.990;2023-06-24T06:03:41;142.30;;;136.02;;
52620;SDS011;38515;53.160;6.990;2023-06-24T06:06:07;291.92;;;278.35;;
52620;SDS011;38515;53.160;6.990;2023-06-24T06:08:33;124.90;;;119.18;;
52620;SDS011;38515;53.160;6.990;2023-06-24T06:10:59;114.40;;;109.43;;
52620;SDS011;38515;53.160;6.990;2023-06-24T06:13:29;123.25;;;117.97;;
52620;SDS011;38515;53.160;6.990;2023-06-24T06:15:56;77.30;;;73.13;;
52620;SDS011;38515;53.160;6.990;2023-06-24T06:18:22;117.05;;;111.85;;
52620;SDS011;38515;53.160;6.990;2023-06-24T06:20:48;186.13;;;177.93;;
52620;SDS011;38515;53.160;6.990;2023-06-24T06:23:15;197.48;;;188.65;;
52620;SDS011;38515;53.160;6.990;2023-06-24T06:25:41;146.35;;;140.13;;
52620;SDS011;38515;53.160;6.990;2023-06-24T06:28:07;215.10;;;205.55;;
52620;SDS011;38515;53.160;6.990;2023-06-24T06:30:33;225.35;;;215.60;;
52620;SDS011;38515;53.160;6.990;2023-06-24T06:32:59;244.93;;;233.63;;
52620;SDS011;38515;53.160;6.990;2023-06-24T06:35:25;243.52;;;233.10;;
52620;SDS011;38515;53.160;6.990;2023-06-24T06:37:51;80.05;;;76.15;;
52620;SDS011;38515;53.160;6.990;2023-06-24T06:40:21;100.80;;;95.55;;
52620;SDS011;38515;53.160;6.990;2023-06-24T06:42:47;106.20;;;101.15;;
52620;SDS011;38515;53.160;6.990;2023-06-24T06:45:14;99.13;;;94.55;;
52620;SDS011;38515;53.160;6.990;2023-06-24T06:47:40;140.20;;;134.05;;
52620;SDS011;38515;53.160;6.990;2023-06-24T06:50:06;107.35;;;102.57;;
52620;SDS011;38515;53.160;6.990;2023-06-24T06:52:41;98.28;;;93.97;;
52620;SDS011;38515;53.160;6.990;2023-06-24T06:55:07;107.45;;;102.55;;
52620;SDS011;38515;53.160;6.990;2023-06-24T06:57:33;142.88;;;136.82;;
52620;SDS011;38515;53.160;6.990;2023-06-24T06:59:59;154.02;;;147.57;;
52620;SDS011;38515;53.160;6.990;2023-06-24T07:02:25;172.55;;;165.35;;
52620;SDS011;38515;53.160;6.990;2023-06-24T07:04:51;244.80;;;234.50;;
52620;SDS011;38515;53.160;6.990;2023-06-24T07:07:17;262.17;;;250.45;;
52620;SDS011;38515;53.160;6.990;2023-06-24T07:09:43;156.77;;;149.75;;
52620;SDS011;38515;53.160;6.990;2023-06-24T07:12:09;261.05;;;248.93;;
52620;SDS011;38515;53.160;6.990;2023-06-24T07:14:35;152.25;;;145.48;;
52620;SDS011;38515;53.160;6.990;2023-06-24T07:17:01;116.65;;;111.63;;
52620;SDS011;38515;53.160;6.990;2023-06-24T07:19:26;153.45;;;146.77;;
52620;SDS011;38515;53.160;6.990;2023-06-24T07:21:52;210.07;;;200.43;;
52620;SDS011;38515;53.160;6.990;2023-06-24T07:24:18;252.57;;;241.38;;
52620;SDS011;38515;53.160;6.990;2023-06-24T07:26:44;165.63;;;158.48;;
52620;SDS011;38515;53.160;6.990;2023-06-24T07:29:10;149.57;;;143.32;;
52620;SDS011;38515;53.160;6.990;2023-06-24T07:31:37;151.55;;;145.07;;
52620;SDS011;38515;53.160;6.990;2023-06-24T07:34:03;115.35;;;110.18;;
52620;SDS011;38515;53.160;6.990;2023-06-24T07:36:30;115.75;;;110.93;;
52620;SDS011;38515;53.160;6.990;2023-06-24T07:38:56;178.60;;;171.52;;
52620;SDS011;38515;53.160;6.990;2023-06-24T07:41:21;154.80;;;148.15;;
52620;SDS011;38515;53.160;6.990;2023-06-24T07:43:47;146.05;;;138.80;;
52620;SDS011;38515;53.160;6.990;2023-06-24T07:46:14;95.22;;;91.00;;
52620;SDS011;38515;53.160;6.990;2023-06-24T07:48:40;112.55;;;107.68;;
52620;SDS011;38515;53.160;6.990;2023-06-24T07:51:06;172.00;;;164.95;;
52620;SDS011;38515;53.160;6.990;2023-06-24T07:53:32;68.32;;;65.13;;
52620;SDS011;38515;53.160;6.990;2023-06-24T07:55:58;63.25;;;60.03;;
52620;SDS011;38515;53.160;6.990;2023-06-24T07:58:24;87.35;;;83.55;;
52620;SDS011;38515;53.160;6.990;2023-06-24T08:00:50;66.20;;;62.88;;
52620;SDS011;38515;53.160;6.990;2023-06-24T08:03:16;175.00;;;167.95;;
52620;SDS011;38515;53.160;6.990;2023-06-24T08:05:42;160.18;;;153.55;;
52620;SDS011;38515;53.160;6.990;2023-06-24T08:08:10;186.93;;;179.27;;
52620;SDS011;38515;53.160;6.990;2023-06-24T08:10:37;164.07;;;157.07;;
52620;SDS011;38515;53.160;6.990;2023-06-24T08:13:03;163.60;;;156.77;;
52620;SDS011;38515;53.160;6.990;2023-06-24T08:15:28;103.53;;;99.07;;
52620;SDS011;38515;53.160;6.990;2023-06-24T08:17:54;82.35;;;78.50;;
52620;SDS011;38515;53.160;6.990;2023-06-24T08:20:22;107.18;;;102.32;;
52620;SDS011;38515;53.160;6.990;2023-06-24T08:22:49;111.78;;;106.93;;
52620;SDS011;38515;53.160;6.990;2023-06-24T08:25:15;86.80;;;82.97;;
52620;SDS011;38515;53.160;6.990;2023-06-24T08:27:41;120.72;;;114.93;;
52620;SDS011;38515;53.160;6.990;2023-06-24T08:30:08;102.40;;;97.68;;
52620;SDS011;38515;53.160;6.990;2023-06-24T08:32:35;134.52;;;128.77;;
52620;SDS011;38515;53.160;6.990;2023-06-24T08:35:01;102.43;;;97.47;;
52620;SDS011;38515;53.160;6.990;2023-06-24T08:37:27;79.93;;;76.38;;
52620;SDS011;38515;53.160;6.990;2023-06-24T08:39:53;67.53;;;64.28;;
52620;SDS011;38515;53.160;6.990;2023-06-24T08:42:19;101.82;;;97.22;;
52620;SDS011;38515;53.160;6.990;2023-06-24T08:44:45;59.83;;;57.22;;
52620;SDS011;38515;53.160;6.990;2023-06-24T08:47:11;94.20;;;90.15;;
52620;SDS011;38515;53.160;6.990;2023-06-24T08:49:43;87.47;;;83.45;;
52620;SDS011;38515;53.160;6.990;2023-06-24T08:52:14;88.22;;;84.07;;
52620;SDS011;38515;53.160;6.990;2023-06-24T08:54:42;91.25;;;87.28;;
52620;SDS011;38515;53.160;6.990;2023-06-24T08:57:12;84.38;;;80.70;;
52620;SDS011;38515;53.160;6.990;2023-06-24T08:59:41;66.15;;;63.28;;
52620;SDS011;38515;53.160;6.990;2023-06-24T09:02:08;77.50;;;74.07;;
52620;SDS011;38515;53.160;6.990;2023-06-24T09:04:34;80.97;;;77.57;;
52620;SDS011;38515;53.160;6.990;2023-06-24T09:07:00;79.78;;;76.38;;
52620;SDS011;38515;53.160;6.990;2023-06-24T09:09:26;109.18;;;104.30;;
52620;SDS011;38515;53.160;6.990;2023-06-24T09:11:57;90.95;;;87.13;;
52620;SDS011;38515;53.160;6.990;2023-06-24T09:14:25;101.63;;;97.32;;
52620;SDS011;38515;53.160;6.990;2023-06-24T09:19:21;70.40;;;67.10;;
52620;SDS011;38515;53.160;6.990;2023-06-24T09:21:48;75.68;;;72.22;;
52620;SDS011;38515;53.160;6.990;2023-06-24T09:24:14;127.50;;;122.07;;
52620;SDS011;38515;53.160;6.990;2023-06-24T09:26:42;165.25;;;158.35;;
52620;SDS011;38515;53.160;6.990;2023-06-24T09:29:14;88.75;;;85.00;;
52620;SDS011;38515;53.160;6.990;2023-06-24T09:31:49;134.45;;;128.85;;
52620;SDS011;38515;53.160;6.990;2023-06-24T09:34:18;78.65;;;75.32;;
52620;SDS011;38515;53.160;6.990;2023-06-24T09:36:45;74.70;;;71.45;;
52620;SDS011;38515;53.160;6.990;2023-06-24T09:39:17;71.70;;;68.60;;
52620;SDS011;38515;53.160;6.990;2023-06-24T09:41:45;72.53;;;69.18;;
52620;SDS011;38515;53.160;6.990;2023-06-24T09:44:15;127.57;;;122.18;;
52620;SDS011;38515;53.160;6.990;2023-06-24T09:46:44;103.18;;;98.57;;
52620;SDS011;38515;53.160;6.990;2023-06-24T09:49:11;63.78;;;60.67;;
52620;SDS011;38515;53.160;6.990;2023-06-24T09:51:38;35.08;;;33.13;;
52620;SDS011;38515;53.160;6.990;2023-06-24T09:54:08;36.10;;;34.03;;
52620;SDS011;38515;53.160;6.990;2023-06-24T09:56:36;36.17;;;34.40;;
52620;SDS011;38515;53.160;6.990;2023-06-24T09:59:06;180.85;;;173.82;;
52620;SDS011;38515;53.160;6.990;2023-06-24T10:01:36;131.85;;;126.22;;
52620;SDS011;38515;53.160;6.990;2023-06-24T10:04:06;158.40;;;152.05;;
52620;SDS011;38515;53.160;6.990;2023-06-24T10:06:35;45.10;;;42.97;;
52620;SDS011;38515;53.160;6.990;2023-06-24T10:09:01;65.20;;;62.33;;
52620;SDS011;38515;53.160;6.990;2023-06-24T10:11:27;78.05;;;74.70;;
52620;SDS011;38515;53.160;6.990;2023-06-24T10:13:53;47.97;;;45.88;;
52620;SDS011;38515;53.160;6.990;2023-06-24T10:16:20;26.92;;;25.50;;
52620;SDS011;38515;53.160;6.990;2023-06-24T10:18:46;21.08;;;19.80;;
52620;SDS011;38515;53.160;6.990;2023-06-24T10:21:12;15.75;;;14.55;;
52620;SDS011;38515;53.160;6.990;2023-06-24T10:23:40;38.30;;;36.33;;
52620;SDS011;38515;53.160;6.990;2023-06-24T10:26:08;64.03;;;60.83;;
52620;SDS011;38515;53.160;6.990;2023-06-24T10:29:09;61.55;;;58.90;;
52620;SDS011;38515;53.160;6.990;2023-06-24T10:36:56;60.78;;;58.10;;
52620;SDS011;38515;53.160;6.990;2023-06-24T10:42:31;46.03;;;43.75;;
52620;SDS011;38515;53.160;6.990;2023-06-24T10:47:45;48.13;;;45.90;;
52620;SDS011;38515;53.160;6.990;2023-06-24T10:50:13;41.22;;;39.05;;
52620;SDS011;38515;53.160;6.990;2023-06-24T10:52:42;48.45;;;46.42;;
52620;SDS011;38515;53.160;6.990;2023-06-24T10:55:09;40.20;;;38.17;;
52620;SDS011;38515;53.160;6.990;2023-06-24T10:57:38;30.33;;;28.52;;
52620;SDS011;38515;53.160;6.990;2023-06-24T11:00:04;19.98;;;18.25;;
52620;SDS011;38515;53.160;6.990;2023-06-24T11:02:31;14.77;;;13.95;;
52620;SDS011;38515;53.160;6.990;2023-06-24T11:04:57;20.38;;;19.38;;
52620;SDS011;38515;53.160;6.990;2023-06-24T11:07:26;21.70;;;20.52;;
52620;SDS011;38515;53.160;6.990;2023-06-24T11:10:05;19.08;;;17.65;;
52620;SDS011;38515;53.160;6.990;2023-06-24T11:12:33;27.23;;;25.77;;
52620;SDS011;38515;53.160;6.990;2023-06-24T11:15:01;39.50;;;36.78;;
52620;SDS011;38515;53.160;6.990;2023-06-24T11:17:29;32.78;;;31.02;;
52620;SDS011;38515;53.160;6.990;2023-06-24T11:19:55;20.88;;;19.67;;
52620;SDS011;38515;53.160;6.990;2023-06-24T11:22:23;26.08;;;24.48;;
52620;SDS011;38515;53.160;6.990;2023-06-24T11:24:49;19.13;;;18.02;;
52620;SDS011;38515;53.160;6.990;2023-06-24T11:27:15;25.33;;;24.02;;
52620;SDS011;38515;53.160;6.990;2023-06-24T11:29:41;19.92;;;18.85;;
52620;SDS011;38515;53.160;6.990;2023-06-24T11:32:09;22.27;;;20.45;;
52620;SDS011;38515;53.160;6.990;2023-06-24T11:34:36;19.27;;;18.10;;
52620;SDS011;38515;53.160;6.990;2023-06-24T11:37:10;23.38;;;21.92;;
52620;SDS011;38515;53.160;6.990;2023-06-24T11:39:37;26.60;;;25.40;;
52620;SDS011;38515;53.160;6.990;2023-06-24T11:42:05;22.05;;;20.92;;
52620;SDS011;38515;53.160;6.990;2023-06-24T11:44:33;25.45;;;24.20;;
52620;SDS011;38515;53.160;6.990;2023-06-24T11:47:05;28.88;;;27.58;;
52620;SDS011;38515;53.160;6.990;2023-06-24T11:49:32;25.25;;;23.95;;
52620;SDS011;38515;53.160;6.990;2023-06-24T11:52:14;18.75;;;17.65;;
52620;SDS011;38515;53.160;6.990;2023-06-24T11:54:42;23.92;;;22.67;;
52620;SDS011;38515;53.160;6.990;2023-06-24T11:57:09;24.08;;;22.80;;
52620;SDS011;38515;53.160;6.990;2023-06-24T11:59:35;18.05;;;17.13;;
52620;SDS011;38515;53.160;6.990;2023-06-24T12:02:01;18.63;;;17.63;;
52620;SDS011;38515;53.160;6.990;2023-06-24T12:04:32;21.40;;;20.40;;
52620;SDS011;38515;53.160;6.990;2023-06-24T12:06:59;22.13;;;20.90;;
52620;SDS011;38515;53.160;6.990;2023-06-24T12:09:25;25.77;;;24.42;;
52620;SDS011;38515;53.160;6.990;2023-06-24T12:11:52;18.63;;;17.52;;
52620;SDS011;38515;53.160;6.990;2023-06-24T12:14:18;23.02;;;21.85;;
52620;SDS011;38515;53.160;6.990;2023-06-24T12:16:44;21.58;;;20.27;;
52620;SDS011;38515;53.160;6.990;2023-06-24T12:19:10;19.75;;;18.45;;
52620;SDS011;38515;53.160;6.990;2023-06-24T12:21:36;18.40;;;17.33;;
52620;SDS011;38515;53.160;6.990;2023-06-24T12:24:03;23.13;;;21.60;;
52620;SDS011;38515;53.160;6.990;2023-06-24T12:26:30;22.77;;;21.50;;
52620;SDS011;38515;53.160;6.990;2023-06-24T12:28:57;23.08;;;21.88;;
52620;SDS011;38515;53.160;6.990;2023-06-24T12:31:23;18.35;;;17.35;;
52620;SDS011;38515;53.160;6.990;2023-06-24T12:33:50;22.70;;;21.52;;
52620;SDS011;38515;53.160;6.990;2023-06-24T12:36:17;18.88;;;17.83;;
52620;SDS011;38515;53.160;6.990;2023-06-24T12:38:43;19.67;;;18.75;;
52620;SDS011;38515;53.160;6.990;2023-06-24T12:41:09;18.98;;;17.83;;
52620;SDS011;38515;53.160;6.990;2023-06-24T12:43:36;18.67;;;17.48;;
52620;SDS011;38515;53.160;6.990;2023-06-24T12:46:02;21.98;;;20.85;;
52620;SDS011;38515;53.160;6.990;2023-06-24T12:48:28;19.10;;;17.75;;
52620;SDS011;38515;53.160;6.990;2023-06-24T12:50:53;19.45;;;18.33;;
52620;SDS011;38515;53.160;6.990;2023-06-24T12:53:20;17.08;;;16.10;;
52620;SDS011;38515;53.160;6.990;2023-06-24T12:55:46;18.25;;;17.00;;
52620;SDS011;38515;53.160;6.990;2023-06-24T12:58:13;16.92;;;15.77;;
52620;SDS011;38515;53.160;6.990;2023-06-24T13:00:40;17.63;;;16.45;;
52620;SDS011;38515;53.160;6.990;2023-06-24T13:03:06;21.58;;;20.17;;
52620;SDS011;38515;53.160;6.990;2023-06-24T13:05:32;14.50;;;13.65;;
52620;SDS011;38515;53.160;6.990;2023-06-24T13:08:01;15.45;;;14.55;;
52620;SDS011;38515;53.160;6.990;2023-06-24T13:10:27;19.98;;;18.88;;
52620;SDS011;38515;53.160;6.990;2023-06-24T13:12:53;18.10;;;17.00;;
52620;SDS011;38515;53.160;6.990;2023-06-24T13:15:18;19.98;;;18.98;;
52620;SDS011;38515;53.160;6.990;2023-06-24T13:17:44;17.05;;;16.15;;
52620;SDS011;38515;53.160;6.990;2023-06-24T13:20:10;17.38;;;16.20;;
52620;SDS011;38515;53.160;6.990;2023-06-24T13:22:36;16.98;;;15.98;;
52620;SDS011;38515;53.160;6.990;2023-06-24T13:25:02;17.80;;;16.60;;
52620;SDS011;38515;53.160;6.990;2023-06-24T13:27:29;18.02;;;16.92;;
52620;SDS011;38515;53.160;6.990;2023-06-24T13:29:55;18.52;;;17.48;;
52620;SDS011;38515;53.160;6.990;2023-06-24T13:32:20;48.42;;;46.22;;
52620;SDS011;38515;53.160;6.990;2023-06-24T13:34:46;24.58;;;23.10;;
52620;SDS011;38515;53.160;6.990;2023-06-24T13:37:13;19.15;;;18.10;;
52620;SDS011;38515;53.160;6.990;2023-06-24T13:39:39;41.08;;;38.95;;
52620;SDS011;38515;53.160;6.990;2023-06-24T13:42:06;27.15;;;25.67;;
52620;SDS011;38515;53.160;6.990;2023-06-24T13:44:32;26.45;;;24.98;;
52620;SDS011;38515;53.160;6.990;2023-06-24T13:46:57;30.75;;;29.05;;
52620;SDS011;38515;53.160;6.990;2023-06-24T13:49:23;22.08;;;20.52;;
52620;SDS011;38515;53.160;6.990;2023-06-24T13:51:52;47.90;;;44.90;;
52620;SDS011;38515;53.160;6.990;2023-06-24T13:54:18;78.35;;;73.93;;
52620;SDS011;38515;53.160;6.990;2023-06-24T13:56:44;89.65;;;85.25;;
52620;SDS011;38515;53.160;6.990;2023-06-24T13:59:10;195.82;;;187.30;;
52620;SDS011;38515;53.160;6.990;2023-06-24T14:01:36;96.55;;;91.95;;
52620;SDS011;38515;53.160;6.990;2023-06-24T14:04:02;142.57;;;136.07;;
52620;SDS011;38515;53.160;6.990;2023-06-24T14:06:31;145.13;;;138.43;;
52620;SDS011;38515;53.160;6.990;2023-06-24T14:08:57;127.90;;;121.95;;
52620;SDS011;38515;53.160;6.990;2023-06-24T14:11:23;70.03;;;66.45;;
52620;SDS011;38515;53.160;6.990;2023-06-24T14:13:54;157.20;;;150.57;;
52620;SDS011;38515;53.160;6.990;2023-06-24T14:16:20;204.95;;;196.50;;
52620;SDS011;38515;53.160;6.990;2023-06-24T14:18:48;108.10;;;103.35;;
52620;SDS011;38515;53.160;6.990;2023-06-24T14:21:14;80.82;;;77.00;;
52620;SDS011;38515;53.160;6.990;2023-06-24T14:23:40;60.05;;;56.80;;
52620;SDS011;38515;53.160;6.990;2023-06-24T14:26:07;53.67;;;50.88;;
52620;SDS011;38515;53.160;6.990;2023-06-24T14:28:33;40.85;;;38.17;;
52620;SDS011;38515;53.160;6.990;2023-06-24T14:30:59;45.83;;;43.17;;
52620;SDS011;38515;53.160;6.990;2023-06-24T14:33:25;74.80;;;71.20;;
52620;SDS011;38515;53.160;6.990;2023-06-24T14:35:53;246.20;;;235.48;;